createdAt,value
2023-02-11T00:02:57.262Z,36.60
2023-02-11T00:08:01.295Z,39.00
2023-02-11T00:13:04.609Z,47.00
2023-02-11T00:18:08.250Z,32.13
2023-02-11T00:23:11.597Z,42.00
2023-02-11T00:28:15.055Z,34.13
2023-02-11T00:33:18.407Z,32.80
2023-02-11T00:38:21.685Z,35.73
2023-02-11T00:43:26.163Z,31.07
2023-02-11T00:48:29.623Z,43.60
2023-02-11T00:53:33.505Z,35.77
2023-02-11T00:58:37.612Z,37.50
2023-02-11T01:03:41.228Z,37.03
2023-02-11T01:08:44.929Z,39.50
2023-02-11T01:13:49.934Z,36.73
2023-02-11T01:18:53.373Z,33.30
2023-02-11T01:23:56.834Z,32.50
2023-02-11T01:29:01.552Z,34.27
2023-02-11T01:34:04.693Z,34.57
2023-02-11T01:39:09.212Z,35.40
2023-02-11T01:44:37.471Z,30.30
2023-02-11T01:49:44.432Z,34.17
2023-02-11T01:55:10.730Z,25.73
2023-02-11T02:00:22.469Z,28.27
2023-02-11T02:05:49.821Z,33.43
2023-02-11T02:10:56.808Z,30.30
2023-02-11T02:16:09.505Z,29.53
2023-02-11T02:21:59.987Z,24.53
2023-02-11T02:27:30.285Z,32.17
2023-02-11T02:33:16.767Z,26.13
2023-02-11T02:38:45.485Z,29.60
2023-02-11T02:43:52.240Z,25.07
2023-02-11T02:48:57.132Z,21.03
2023-02-11T02:54:37.546Z,27.27
2023-02-11T03:00:02.466Z,35.07
2023-02-11T03:05:39.649Z,30.43
2023-02-11T03:10:46.994Z,29.23
2023-02-11T03:15:55.121Z,25.20
2023-02-11T03:21:00.332Z,29.23
2023-02-11T03:26:06.576Z,33.53
2023-02-11T03:31:16.872Z,36.47
2023-02-11T03:36:30.707Z,38.93
2023-02-11T03:41:36.027Z,37.70
2023-02-11T03:46:43.853Z,38.03
2023-02-11T03:51:50.104Z,38.17
2023-02-11T03:56:57.227Z,36.67
2023-02-11T04:02:00.449Z,45.10
2023-02-11T04:07:03.868Z,37.20
2023-02-11T04:12:07.710Z,35.50
2023-02-11T04:17:12.234Z,48.57
2023-02-11T04:22:15.637Z,34.97
2023-02-11T04:27:19.155Z,39.63
2023-02-11T04:32:22.754Z,38.13
2023-02-11T04:37:26.042Z,42.07
2023-02-11T04:42:29.809Z,45.30
2023-02-11T04:47:33.255Z,40.43
2023-02-11T04:52:37.011Z,45.07
2023-02-11T04:57:40.290Z,42.10
2023-02-11T05:02:44.409Z,43.90
2023-02-11T05:07:48.839Z,43.20
2023-02-11T05:12:55.321Z,38.83
2023-02-11T05:17:59.389Z,42.67
2023-02-11T05:23:03.031Z,45.70
2023-02-11T05:28:07.052Z,43.73
2023-02-11T05:33:10.478Z,35.83
2023-02-11T05:38:13.911Z,47.57
2023-02-11T05:43:17.257Z,45.00
2023-02-11T05:48:20.596Z,41.40
2023-02-11T05:53:24.398Z,44.30
2023-02-11T05:58:28.142Z,37.27
2023-02-11T06:03:31.477Z,47.53
2023-02-11T06:08:36.488Z,51.30
2023-02-11T06:13:41.572Z,46.20
2023-02-11T06:18:44.767Z,42.33
2023-02-11T06:23:48.077Z,51.60
2023-02-11T06:28:51.692Z,49.43
2023-02-11T06:33:59.353Z,48.20
2023-02-11T06:39:03.454Z,52.07
2023-02-11T06:44:07.484Z,44.97
2023-02-11T06:49:10.942Z,55.37
2023-02-11T06:54:15.257Z,53.73
2023-02-11T06:59:21.095Z,47.87
2023-02-11T07:04:24.340Z,55.00
2023-02-11T07:09:27.555Z,56.30
2023-02-11T07:14:30.825Z,50.37
2023-02-11T07:19:34.564Z,57.23
2023-02-11T07:24:37.901Z,49.27
2023-02-11T07:29:43.115Z,49.03
2023-02-11T07:34:48.424Z,51.47
2023-02-11T07:39:51.683Z,55.10
2023-02-11T07:44:55.082Z,44.57
2023-02-11T07:49:58.482Z,40.67
2023-02-11T07:55:03.824Z,46.43
2023-02-11T08:00:08.952Z,44.30
2023-02-11T08:05:12.469Z,47.53
2023-02-11T08:10:15.741Z,52.03
2023-02-11T08:15:19.200Z,45.20
2023-02-11T08:20:22.553Z,43.37
2023-02-11T08:25:25.837Z,46.97
2023-02-11T08:30:30.526Z,39.40
2023-02-11T08:35:37.456Z,34.37
2023-02-11T08:40:40.696Z,40.63
2023-02-11T08:45:44.937Z,36.97
2023-02-11T08:50:48.319Z,40.30
2023-02-11T08:55:54.103Z,48.20
2023-02-11T09:00:57.504Z,49.10
2023-02-11T09:06:00.917Z,46.00
2023-02-11T09:11:04.877Z,50.27
2023-02-11T09:16:09.167Z,52.70
2023-02-11T09:21:13.325Z,46.73
2023-02-11T09:26:26.520Z,48.40
2023-02-11T09:31:32.070Z,42.67
2023-02-11T09:36:38.856Z,32.97
2023-02-11T09:42:00.950Z,46.67
2023-02-11T09:47:22.948Z,54.27
2023-02-11T09:52:31.230Z,48.23
2023-02-11T09:57:40.772Z,57.23
2023-02-11T10:03:15.741Z,47.23
2023-02-11T10:08:40.173Z,52.93
2023-02-11T10:19:39.667Z,47.67
2023-02-11T10:24:51.006Z,45.27
2023-02-11T10:29:59.653Z,49.30
2023-02-11T10:35:10.933Z,44.33
2023-02-11T10:40:40.812Z,51.37
2023-02-11T10:45:50.776Z,53.43
2023-02-11T10:51:14.081Z,49.53
2023-02-11T10:56:28.688Z,49.37
2023-02-11T11:01:42.675Z,49.37
2023-02-11T11:06:46.348Z,48.03
2023-02-11T11:11:54.279Z,49.33
2023-02-11T11:16:58.014Z,50.13
2023-02-11T11:22:01.626Z,37.30
2023-02-11T11:27:06.118Z,43.70
2023-02-11T11:32:21.781Z,41.87
2023-02-11T11:37:35.497Z,42.20
2023-02-11T11:42:40.350Z,44.40
2023-02-11T11:47:45.064Z,39.03
2023-02-11T11:53:01.293Z,37.43
2023-02-11T11:58:05.853Z,33.10
2023-02-11T12:03:19.916Z,34.23
2023-02-11T12:08:26.260Z,33.53
2023-02-11T12:13:50.184Z,31.77
2023-02-11T12:19:27.893Z,33.23
2023-02-11T12:25:02.233Z,28.57
2023-02-11T12:30:38.695Z,28.37
2023-02-11T12:35:45.459Z,28.57
2023-02-11T12:41:10.851Z,31.97
2023-02-11T12:46:37.390Z,28.10
2023-02-11T12:52:08.846Z,25.93
2023-02-11T12:57:29.798Z,24.13
2023-02-11T13:03:12.736Z,25.43
2023-02-11T13:08:25.222Z,21.87
2023-02-11T13:13:35.041Z,24.87
2023-02-11T13:19:05.191Z,20.93
2023-02-11T13:24:27.432Z,27.20
2023-02-11T13:30:30.231Z,25.73
2023-02-11T13:35:43.425Z,17.73
2023-02-11T13:41:07.568Z,23.23
2023-02-11T13:46:16.267Z,25.27
2023-02-11T13:51:38.330Z,23.37
2023-02-11T13:56:46.652Z,21.00
2023-02-11T14:02:09.843Z,22.63
2023-02-11T14:07:54.011Z,21.37
2023-02-11T14:13:29.796Z,25.07
2023-02-11T14:19:00.089Z,27.43
2023-02-11T14:24:09.504Z,24.03
2023-02-11T14:29:32.824Z,26.20
2023-02-11T14:34:55.752Z,23.87
2023-02-11T14:40:19.716Z,27.53
2023-02-11T14:45:29.887Z,26.53
2023-02-11T14:51:14.168Z,28.27
2023-02-11T14:56:22.902Z,24.33
2023-02-11T15:01:36.729Z,27.30
2023-02-11T15:06:45.141Z,22.83
2023-02-11T15:11:52.347Z,26.57
2023-02-11T15:17:00.003Z,23.93
2023-02-11T15:22:23.663Z,25.33
2023-02-11T15:27:28.834Z,25.87
2023-02-11T15:32:33.868Z,27.60
2023-02-11T15:37:41.656Z,31.57
2023-02-11T15:43:06.146Z,29.33
2023-02-11T15:48:17.320Z,29.63
2023-02-11T15:53:29.596Z,24.67
2023-02-11T15:58:41.382Z,28.10
2023-02-11T16:03:50.656Z,26.57
2023-02-11T16:09:06.797Z,26.27
2023-02-11T16:14:40.251Z,32.00
2023-02-11T16:19:50.563Z,31.93
2023-02-11T16:24:59.272Z,29.20
2023-02-11T16:30:04.104Z,33.63
2023-02-11T16:35:12.034Z,29.77
2023-02-11T16:40:16.802Z,25.47
2023-02-11T16:45:21.642Z,26.67
2023-02-11T16:50:27.528Z,30.20
2023-02-11T16:55:32.570Z,28.10
2023-02-11T17:00:37.894Z,28.67
2023-02-11T17:05:54.622Z,27.43
2023-02-11T17:11:04.659Z,34.10
2023-02-11T17:16:23.483Z,31.30
2023-02-11T17:21:29.988Z,34.90
2023-02-11T17:26:35.823Z,29.30
2023-02-11T17:31:41.488Z,34.43
2023-02-11T17:36:47.178Z,37.43
2023-02-11T17:41:53.081Z,36.67
2023-02-11T17:46:57.506Z,31.97
2023-02-11T17:52:01.260Z,32.87
2023-02-11T17:57:05.100Z,24.90
2023-02-11T18:02:11.137Z,29.33
2023-02-11T18:07:15.859Z,25.27
2023-02-11T18:12:26.008Z,23.43
2023-02-11T18:17:30.910Z,28.33
2023-02-11T18:22:40.166Z,23.70
2023-02-11T18:27:44.788Z,26.60
2023-02-11T18:32:56.612Z,32.00
2023-02-11T18:38:00.275Z,23.93
2023-02-11T18:43:05.817Z,26.27
2023-02-11T18:48:11.335Z,27.20
2023-02-11T18:53:16.834Z,31.27
2023-02-11T18:58:23.282Z,21.70
2023-02-11T19:03:28.774Z,24.87
2023-02-11T19:08:35.553Z,27.20
2023-02-11T19:13:40.372Z,30.77
2023-02-11T19:18:45.971Z,25.63
2023-02-11T19:23:50.772Z,26.07
2023-02-11T19:28:57.328Z,23.70
2023-02-11T19:34:02.675Z,24.50
2023-02-11T19:39:10.993Z,28.07
2023-02-11T19:44:15.518Z,22.10
2023-02-11T19:49:27.821Z,20.03
2023-02-11T19:54:32.712Z,22.23
2023-02-11T19:59:38.431Z,25.67
2023-02-11T20:04:43.853Z,21.53
2023-02-11T20:09:50.471Z,26.27
2023-02-11T20:14:57.270Z,26.50
2023-02-11T20:20:02.393Z,22.97
2023-02-11T20:25:07.742Z,20.33
2023-02-11T20:30:15.352Z,19.53
2023-02-11T20:35:21.492Z,26.37
2023-02-11T20:40:26.080Z,22.27
2023-02-11T20:45:36.305Z,13.63
2023-02-11T20:50:42.258Z,22.20
2023-02-11T20:55:50.222Z,11.77
2023-02-11T21:00:55.919Z,16.27
2023-02-11T21:06:02.420Z,13.87
2023-02-11T21:11:10.333Z,12.80
2023-02-11T21:16:18.223Z,13.83
2023-02-11T21:21:24.072Z,16.83
2023-02-11T21:26:29.103Z,9.07
2023-02-11T21:31:36.866Z,13.47
2023-02-11T21:36:40.508Z,13.27
2023-02-11T21:41:57.328Z,15.20
2023-02-11T21:47:03.142Z,11.50
2023-02-11T21:52:11.369Z,8.77
2023-02-11T21:57:17.456Z,5.97
2023-02-11T22:02:21.724Z,9.83
2023-02-11T22:07:27.832Z,10.77
2023-02-11T22:12:31.857Z,12.37
2023-02-11T22:17:35.478Z,5.33
2023-02-11T22:22:39.437Z,3.57
2023-02-11T22:27:42.804Z,3.13
2023-02-11T22:32:47.496Z,6.60
2023-02-11T22:37:50.942Z,4.20
2023-02-11T22:42:54.358Z,5.57
2023-02-11T22:47:58.117Z,5.93
2023-02-11T22:53:01.568Z,16.07
2023-02-11T22:58:05.386Z,6.23
2023-02-11T23:03:09.408Z,6.17
2023-02-11T23:08:13.185Z,6.67
2023-02-11T23:13:16.537Z,13.87
2023-02-11T23:18:19.898Z,6.23
2023-02-11T23:23:23.546Z,8.40
2023-02-11T23:28:27.595Z,6.77
2023-02-11T23:33:31.060Z,8.60
2023-02-11T23:38:37.521Z,7.53
2023-02-11T23:43:41.664Z,10.70
2023-02-11T23:48:48.632Z,20.50
2023-02-11T23:53:53.294Z,16.43
2023-02-11T23:58:59.320Z,14.03
